Amesbury, MA

10:02 AM EDT on August 27, 2014 (GMT -0400)
Lawrence Municipal | Change Station
CLOSE
Current Station
Airport
Location: Lawrence,
Elevation: 148 ft
Nearby Weather Stations

Elev 148 ft 42.72 °N, 71.12 °W | Updated 8 minutes ago

Clear
Clear
78 °F
Feels Like 78 °F
N
8
Wind Variable Wind from SW

Today
High -- | Low -- °F
--% Chance of Precip.
Yesterday
High -- | Low -- °F
Precip. -- in
6:02 AM 7:26 PM
Waxing Crescent, 4% visible
Pressure 29.97 in
Visibility 10.0 miles
Clouds Clear
Dew Point 64 °F
Humidity 62%
Rainfall 0.00 in
Snow Depth Not available.
UV 5 out of 12
Pollen 10.20 out of 12
PM2.5 Good
Flu Activity Not available.
METAR KLWM 271354Z 22007KT 10SM CLR 26/18 A2997 RMK AO2 SLP148 T02560178

More Conditions Fewer Conditions

Pressure 29.97 in
Visibility 10.0 miles
Clouds Clear
Dew Point 64 °F
Humidity 62%
Rainfall 0.00 in
Snow Depth Not available.
UV 5 out of 12
Pollen 10.20 out of 12
PM2.5 Good
Flu Activity Not available.
METAR KLWM 271354Z 22007KT 10SM CLR 26/18 A2997 RMK AO2 SLP148 T02560178

More Conditions Fewer Conditions

10-Day Weather Forecast

Almanac

Astronomy

Aug. 27, 2014 Rise Set
Actual Time 6:02 AM EDT 7:26 PM EDT
Civil Twilight 5:33 AM EDT 7:56 PM EDT
Nautical Twilight 4:57 AM EDT 8:31 PM EDT
Astronomical Twilight 4:20 AM EDT 9:09 PM EDT
Moon 7:59 AM EDT 8:12 PM EDT
Length of Visible Light 14h 22m
Length of Day
13h 23m
Tomorrow will be 2m 46s shorter.
Waxing Crescent, 4% of the Moon is Illuminated
Today
Waxing Crescent
Sep 2
First Quarter
Sep 8
Full
Sep 15
Last Quarter
Sep 24
New

Today's Extremes

State Highs State Lows

Community

WunderPhotos

Upload Photos

1,747,688 photos uploaded!

Nearby

Air Quality

  Air Quality AQ Index Pollutant
Yesterday Good
PM2.5
Yesterday Good
OZONE
Current Good
PM2.5
Wednesday Moderate
OZONE
Wednesday Good
PM2.5

Snow Depth

Station Depth Elevation
No new snow has been reported.

Earthquake Activity

City Distance Mag. Time & Date
No recent earthquake activity has been reported nearby.
Minimum magnitude displayed is 2.5.

Coastal Water Temperatures

Place Temperature
Wells, ME 60.1 °F
Portland, ME 60.1 °F

Nearby Weather Stations